RYR19NG EPMO-LIMC
Flight info
| Callsign | RYR19NG |
|---|---|
| Flight time | N/A |
| Altitude | 36000 |
| Route | EVINA N744 NAVUR DCT BAVOK DCT DETSA/N0432F370 DCT GUNGO DCT RENTA DCT ATPED DCT LUSIL DCT EVRIP |
| Aircraft | B738/M-SDE2E3FGHIRWXY/LB1 |
Departure
| Time | 2026-04-10 11:03 |
|---|---|
| Airport | Warsaw Modlin Airport (EPMO) |
Arrival
| Time | N/A |
|---|---|
| Airport | Milan Malpensa International Airport (LIMC) |
| Time | Latitude | Longitude | Altitude | Speed | Heading |
|---|---|---|---|---|---|
| 2026-04-10 10:40 | 52.44714 | 20.64938 | 337 ft | 0 kts | 206° |
| 2026-04-10 10:55 | 52.44724 | 20.64947 | 332 ft | 3 kts | 208° |
| 2026-04-10 10:55 | 52.44742 | 20.64963 | 334 ft | 3 kts | 214° |
| 2026-04-10 10:55 | 52.44757 | 20.64983 | 334 ft | 3 kts | 229° |
| 2026-04-10 10:56 | 52.44767 | 20.65009 | 332 ft | 2 kts | 256° |
| 2026-04-10 10:56 | 52.44769 | 20.65018 | 334 ft | 0 kts | 261° |
| 2026-04-10 10:58 | 52.44767 | 20.65004 | 332 ft | 3 kts | 261° |
| 2026-04-10 10:58 | 52.44761 | 20.64934 | 334 ft | 9 kts | 261° |
| 2026-04-10 10:59 | 52.44748 | 20.64798 | 335 ft | 15 kts | 261° |
| 2026-04-10 10:59 | 52.44729 | 20.64604 | 337 ft | 20 kts | 261° |
| 2026-04-10 10:59 | 52.44708 | 20.64376 | 337 ft | 21 kts | 261° |
| 2026-04-10 10:59 | 52.44686 | 20.64148 | 337 ft | 20 kts | 261° |
| 2026-04-10 11:00 | 52.44665 | 20.63927 | 333 ft | 19 kts | 261° |
| 2026-04-10 11:00 | 52.44645 | 20.63713 | 336 ft | 19 kts | 261° |
| 2026-04-10 11:00 | 52.44631 | 20.63563 | 335 ft | 11 kts | 261° |
| 2026-04-10 11:00 | 52.44652 | 20.63458 | 335 ft | 10 kts | 329° |
| 2026-04-10 11:01 | 52.44722 | 20.63435 | 333 ft | 10 kts | 351° |
| 2026-04-10 11:01 | 52.44799 | 20.63415 | 333 ft | 12 kts | 351° |
| 2026-04-10 11:01 | 52.44880 | 20.63397 | 337 ft | 12 kts | 356° |
| 2026-04-10 11:01 | 52.44952 | 20.63448 | 333 ft | 14 kts | 57° |
| 2026-04-10 11:02 | 52.44985 | 20.63726 | 335 ft | 51 kts | 81° |
| 2026-04-10 11:02 | 52.45077 | 20.64709 | 337 ft | 121 kts | 82° |
| 2026-04-10 11:02 | 52.45239 | 20.66385 | 433 ft | 169 kts | 79° |
| 2026-04-10 11:02 | 52.45432 | 20.68444 | 937 ft | 193 kts | 77° |
| 2026-04-10 11:03 | 52.45655 | 20.70664 | 1688 ft | 201 kts | 77° |
| 2026-04-10 11:03 | 52.45890 | 20.72984 | 2426 ft | 205 kts | 77° |
| 2026-04-10 11:03 | 52.46149 | 20.75417 | 2808 ft | 231 kts | 77° |
| 2026-04-10 11:03 | 52.46704 | 20.77966 | 3372 ft | 242 kts | 53° |
| 2026-04-10 11:04 | 52.47964 | 20.79784 | 4198 ft | 242 kts | 26° |
| 2026-04-10 11:04 | 52.49581 | 20.80565 | 5057 ft | 248 kts | 2° |
| 2026-04-10 11:04 | 52.51294 | 20.80303 | 5866 ft | 246 kts | 352° |
| 2026-04-10 11:04 | 52.53007 | 20.79863 | 6347 ft | 252 kts | 352° |
| 2026-04-10 11:05 | 52.56514 | 20.78958 | 7973 ft | 258 kts | 353° |
| 2026-04-10 11:05 | 52.58298 | 20.78509 | 8793 ft | 260 kts | 353° |
| 2026-04-10 11:05 | 52.60101 | 20.78268 | 9633 ft | 260 kts | 8° |
| 2026-04-10 11:06 | 52.61791 | 20.79262 | 10434 ft | 261 kts | 33° |
| 2026-04-10 11:06 | 52.63093 | 20.81365 | 10874 ft | 279 kts | 55° |
| 2026-04-10 11:06 | 52.63808 | 20.84425 | 11351 ft | 295 kts | 76° |
| 2026-04-10 11:06 | 52.64132 | 20.87783 | 12089 ft | 300 kts | 79° |
| 2026-04-10 11:07 | 52.64187 | 20.89368 | 12435 ft | 305 kts | 89° |
| 2026-04-10 11:07 | 52.64081 | 20.90747 | 12727 ft | 310 kts | 99° |
| 2026-04-10 11:07 | 52.63697 | 20.92630 | 13164 ft | 316 kts | 110° |
| 2026-04-10 11:08 | 52.63583 | 20.93031 | 13241 ft | 319 kts | 113° |
| 2026-04-10 11:08 | 52.62189 | 20.96009 | 13662 ft | 342 kts | 134° |
| 2026-04-10 11:09 | 52.60336 | 20.98559 | 14279 ft | 351 kts | 137° |
| 2026-04-10 11:09 | 52.58418 | 21.01066 | 15022 ft | 353 kts | 138° |
| 2026-04-10 11:09 | 52.56513 | 21.03549 | 15820 ft | 354 kts | 137° |
| 2026-04-10 11:09 | 52.54551 | 21.06127 | 16568 ft | 358 kts | 137° |
| 2026-04-10 11:10 | 52.52600 | 21.08714 | 17302 ft | 362 kts | 137° |
| 2026-04-10 11:10 | 52.50644 | 21.11320 | 18059 ft | 364 kts | 136° |
| 2026-04-10 11:10 | 52.48666 | 21.13962 | 18763 ft | 367 kts | 136° |
| 2026-04-10 11:10 | 52.46675 | 21.16623 | 19392 ft | 371 kts | 136° |
| 2026-04-10 11:11 | 52.44692 | 21.19267 | 20015 ft | 374 kts | 136° |
| 2026-04-10 11:11 | 52.42550 | 21.21733 | 20610 ft | 384 kts | 151° |
| 2026-04-10 11:11 | 52.39935 | 21.22895 | 21209 ft | 396 kts | 173° |
| 2026-04-10 11:11 | 52.37176 | 21.22392 | 21831 ft | 406 kts | 196° |
| 2026-04-10 11:12 | 52.34679 | 21.20196 | 22393 ft | 413 kts | 220° |
| 2026-04-10 11:12 | 52.32740 | 21.16715 | 22984 ft | 416 kts | 233° |
| 2026-04-10 11:12 | 52.30990 | 21.12943 | 23502 ft | 420 kts | 234° |
| 2026-04-10 11:12 | 52.29204 | 21.09100 | 23963 ft | 425 kts | 233° |
| 2026-04-10 11:13 | 52.27377 | 21.05283 | 24415 ft | 428 kts | 233° |
| 2026-04-10 11:13 | 52.25483 | 21.01504 | 24878 ft | 431 kts | 228° |
| 2026-04-10 11:13 | 52.23319 | 20.98081 | 25321 ft | 435 kts | 223° |
| 2026-04-10 11:13 | 52.21065 | 20.94853 | 25740 ft | 438 kts | 221° |
| 2026-04-10 11:14 | 52.18743 | 20.91607 | 26140 ft | 442 kts | 221° |
| 2026-04-10 11:14 | 52.16406 | 20.88321 | 26564 ft | 445 kts | 222° |
| 2026-04-10 11:14 | 52.14066 | 20.84988 | 26971 ft | 448 kts | 223° |
| 2026-04-10 11:14 | 52.11728 | 20.81616 | 27363 ft | 451 kts | 223° |
| 2026-04-10 11:15 | 52.09374 | 20.78201 | 27738 ft | 454 kts | 223° |
| 2026-04-10 11:15 | 52.07012 | 20.74766 | 28125 ft | 457 kts | 224° |
| 2026-04-10 11:15 | 52.04635 | 20.71313 | 28507 ft | 460 kts | 224° |
| 2026-04-10 11:15 | 52.02240 | 20.67840 | 28869 ft | 463 kts | 224° |
| 2026-04-10 11:16 | 51.99823 | 20.64343 | 29206 ft | 466 kts | 224° |
| 2026-04-10 11:16 | 51.97395 | 20.60839 | 29586 ft | 468 kts | 224° |
| 2026-04-10 11:16 | 51.94878 | 20.57470 | 29912 ft | 473 kts | 215° |
| 2026-04-10 11:16 | 51.91886 | 20.55169 | 30191 ft | 479 kts | 200° |
| 2026-04-10 11:17 | 51.88732 | 20.53408 | 30482 ft | 481 kts | 200° |
| 2026-04-10 11:17 | 51.85548 | 20.51658 | 30781 ft | 483 kts | 200° |
| 2026-04-10 11:17 | 51.82371 | 20.49883 | 31119 ft | 483 kts | 200° |
| 2026-04-10 11:17 | 51.79199 | 20.48073 | 31469 ft | 483 kts | 201° |
| 2026-04-10 11:18 | 51.76038 | 20.46240 | 31803 ft | 483 kts | 201° |
| 2026-04-10 11:18 | 51.72921 | 20.44421 | 32158 ft | 482 kts | 201° |
| 2026-04-10 11:18 | 51.69760 | 20.42580 | 32514 ft | 482 kts | 201° |
| 2026-04-10 11:18 | 51.66603 | 20.40750 | 32827 ft | 483 kts | 201° |
| 2026-04-10 11:19 | 51.63340 | 20.39413 | 33080 ft | 486 kts | 188° |
| 2026-04-10 11:19 | 51.59974 | 20.38888 | 33456 ft | 485 kts | 185° |
| 2026-04-10 11:19 | 51.56612 | 20.38504 | 33831 ft | 484 kts | 184° |
| 2026-04-10 11:19 | 51.53255 | 20.38116 | 34122 ft | 485 kts | 185° |
| 2026-04-10 11:20 | 51.49888 | 20.37672 | 34368 ft | 485 kts | 186° |
| 2026-04-10 11:20 | 51.46529 | 20.37178 | 34666 ft | 484 kts | 186° |
| 2026-04-10 11:20 | 51.43182 | 20.36667 | 34992 ft | 482 kts | 186° |
| 2026-04-10 11:20 | 51.39875 | 20.35874 | 35230 ft | 480 kts | 198° |
| 2026-04-10 11:21 | 51.36819 | 20.33795 | 35440 ft | 474 kts | 215° |
| 2026-04-10 11:21 | 51.34153 | 20.30750 | 35747 ft | 469 kts | 221° |
| 2026-04-10 11:21 | 51.31574 | 20.27552 | 36025 ft | 468 kts | 221° |
| 2026-04-10 11:21 | 51.29005 | 20.24333 | 36146 ft | 470 kts | 221° |
| 2026-04-10 11:22 | 51.23847 | 20.17987 | 36135 ft | 471 kts | 220° |
| 2026-04-10 11:22 | 51.18617 | 20.11708 | 36130 ft | 468 kts | 220° |
| 2026-04-10 11:23 | 51.13426 | 20.05512 | 36130 ft | 465 kts | 220° |
| 2026-04-10 11:23 | 51.08285 | 19.99388 | 36134 ft | 463 kts | 220° |
| 2026-04-10 11:24 | 51.03099 | 19.93234 | 36137 ft | 462 kts | 220° |
| 2026-04-10 11:24 | 50.98427 | 19.86367 | 36149 ft | 455 kts | 232° |
| 2026-04-10 11:25 | 50.94202 | 19.78855 | 36134 ft | 457 kts | 233° |
| 2026-04-10 11:25 | 50.89969 | 19.71325 | 36139 ft | 458 kts | 233° |
| 2026-04-10 11:26 | 50.85714 | 19.63861 | 36135 ft | 460 kts | 233° |
| 2026-04-10 11:26 | 50.81368 | 19.56311 | 36136 ft | 462 kts | 233° |
| 2026-04-10 11:27 | 50.77205 | 19.49107 | 36135 ft | 462 kts | 233° |
| 2026-04-10 11:27 | 50.72859 | 19.41609 | 36129 ft | 463 kts | 233° |
| 2026-04-10 11:28 | 50.68511 | 19.34126 | 36129 ft | 462 kts | 233° |
| 2026-04-10 11:28 | 50.64162 | 19.26663 | 36122 ft | 461 kts | 233° |
| 2026-04-10 11:29 | 50.59819 | 19.19232 | 36122 ft | 460 kts | 233° |
| 2026-04-10 11:29 | 50.55512 | 19.11883 | 36120 ft | 458 kts | 233° |
| 2026-04-10 11:30 | 50.51195 | 19.04540 | 36122 ft | 456 kts | 233° |
| 2026-04-10 11:30 | 50.46889 | 18.97234 | 36125 ft | 455 kts | 233° |
| 2026-04-10 11:31 | 50.42594 | 18.89969 | 36123 ft | 453 kts | 233° |
| 2026-04-10 11:31 | 50.38305 | 18.82733 | 36112 ft | 452 kts | 233° |
| 2026-04-10 11:32 | 50.34014 | 18.75516 | 36120 ft | 451 kts | 233° |
| 2026-04-10 11:32 | 50.29733 | 18.68335 | 36118 ft | 451 kts | 233° |
| 2026-04-10 11:33 | 50.25450 | 18.61171 | 36118 ft | 451 kts | 233° |
| 2026-04-10 11:33 | 50.21186 | 18.54059 | 36116 ft | 451 kts | 233° |
| 2026-04-10 11:34 | 50.16885 | 18.46905 | 36116 ft | 451 kts | 233° |
| 2026-04-10 11:34 | 50.12580 | 18.39764 | 36118 ft | 452 kts | 233° |
| 2026-04-10 11:35 | 50.08273 | 18.32640 | 36116 ft | 452 kts | 233° |
| 2026-04-10 11:35 | 50.03958 | 18.25520 | 36111 ft | 452 kts | 233° |
| 2026-04-10 11:36 | 49.99684 | 18.18368 | 36112 ft | 448 kts | 237° |
| 2026-04-10 11:36 | 49.95894 | 18.10727 | 36115 ft | 445 kts | 240° |
| 2026-04-10 11:37 | 49.92214 | 18.02988 | 36108 ft | 444 kts | 239° |
| 2026-04-10 11:37 | 49.88583 | 17.95432 | 36104 ft | 434 kts | 239° |
| 2026-04-10 11:38 | 49.84953 | 17.87964 | 36119 ft | 434 kts | 239° |
| 2026-04-10 11:38 | 49.81305 | 17.80505 | 36126 ft | 435 kts | 239° |
| 2026-04-10 11:39 | 49.77644 | 17.73049 | 36121 ft | 435 kts | 239° |
| 2026-04-10 11:39 | 49.73973 | 17.65597 | 36118 ft | 435 kts | 239° |
| 2026-04-10 11:40 | 49.70298 | 17.58159 | 36123 ft | 436 kts | 239° |
| 2026-04-10 11:40 | 49.66619 | 17.50733 | 36116 ft | 435 kts | 239° |
| 2026-04-10 11:41 | 49.62936 | 17.43318 | 36122 ft | 435 kts | 239° |
| 2026-04-10 11:41 | 49.59257 | 17.35933 | 36123 ft | 434 kts | 239° |
| 2026-04-10 11:42 | 49.56202 | 17.29816 | 36116 ft | 433 kts | 239° |
| 2026-04-10 11:42 | 49.52535 | 17.22494 | 36119 ft | 430 kts | 239° |
| 2026-04-10 11:43 | 49.48885 | 17.15225 | 36119 ft | 428 kts | 239° |
| 2026-04-10 11:43 | 49.45251 | 17.08007 | 36121 ft | 426 kts | 239° |
| 2026-04-10 11:44 | 49.41629 | 17.00831 | 36131 ft | 424 kts | 239° |
| 2026-04-10 11:44 | 49.38043 | 16.93745 | 36124 ft | 422 kts | 239° |
| 2026-04-10 11:45 | 49.34428 | 16.86621 | 36121 ft | 421 kts | 239° |
| 2026-04-10 11:45 | 49.30853 | 16.79594 | 36128 ft | 419 kts | 240° |
| 2026-04-10 11:46 | 49.27258 | 16.72546 | 36128 ft | 419 kts | 240° |
| 2026-04-10 11:46 | 49.23666 | 16.65523 | 36129 ft | 418 kts | 240° |
| 2026-04-10 11:47 | 49.20072 | 16.58513 | 36133 ft | 419 kts | 240° |
| 2026-04-10 11:47 | 49.16463 | 16.51492 | 36122 ft | 421 kts | 240° |
| 2026-04-10 11:48 | 49.12840 | 16.44467 | 36122 ft | 420 kts | 240° |
| 2026-04-10 11:48 | 49.09216 | 16.37459 | 36124 ft | 420 kts | 239° |
| 2026-04-10 11:49 | 49.05622 | 16.30525 | 36126 ft | 419 kts | 239° |
| 2026-04-10 11:49 | 49.01998 | 16.23551 | 36132 ft | 419 kts | 240° |
| 2026-04-10 11:50 | 48.98371 | 16.16589 | 36126 ft | 419 kts | 240° |
| 2026-04-10 11:50 | 48.94751 | 16.09659 | 36134 ft | 418 kts | 239° |
| 2026-04-10 11:51 | 48.91123 | 16.02734 | 36127 ft | 418 kts | 239° |
| 2026-04-10 11:51 | 48.87501 | 15.95835 | 36125 ft | 417 kts | 239° |
| 2026-04-10 11:52 | 48.83872 | 15.88941 | 36127 ft | 417 kts | 239° |
| 2026-04-10 11:52 | 48.80265 | 15.82108 | 36130 ft | 417 kts | 239° |
| 2026-04-10 11:53 | 48.76632 | 15.75242 | 36134 ft | 417 kts | 239° |
| 2026-04-10 11:53 | 48.73002 | 15.68398 | 36140 ft | 417 kts | 239° |
| 2026-04-10 11:54 | 48.69362 | 15.61553 | 36134 ft | 417 kts | 239° |
| 2026-04-10 11:54 | 48.65719 | 15.54722 | 36132 ft | 417 kts | 239° |
| 2026-04-10 11:55 | 48.62066 | 15.47889 | 36134 ft | 418 kts | 240° |
| 2026-04-10 11:55 | 48.58409 | 15.41065 | 36134 ft | 418 kts | 240° |
| 2026-04-10 11:56 | 48.54764 | 15.34282 | 36134 ft | 418 kts | 240° |
| 2026-04-10 11:56 | 48.51094 | 15.27471 | 36127 ft | 418 kts | 240° |
| 2026-04-10 11:57 | 48.47416 | 15.20661 | 36147 ft | 418 kts | 240° |
| 2026-04-10 11:57 | 48.43739 | 15.13868 | 36126 ft | 418 kts | 240° |
| 2026-04-10 11:58 | 48.40065 | 15.07102 | 36135 ft | 417 kts | 240° |
| 2026-04-10 11:58 | 48.36381 | 15.00333 | 36134 ft | 417 kts | 240° |
| 2026-04-10 11:59 | 48.32733 | 14.93646 | 36130 ft | 416 kts | 240° |
| 2026-04-10 11:59 | 48.29060 | 14.86929 | 36129 ft | 416 kts | 240° |
| 2026-04-10 12:00 | 48.25379 | 14.80214 | 36135 ft | 417 kts | 240° |
| 2026-04-10 12:00 | 48.21688 | 14.73498 | 36131 ft | 417 kts | 240° |
| 2026-04-10 12:01 | 48.17996 | 14.66799 | 36124 ft | 416 kts | 240° |
| 2026-04-10 12:01 | 48.14304 | 14.60119 | 36136 ft | 416 kts | 240° |
| 2026-04-10 12:02 | 48.10612 | 14.53450 | 36125 ft | 416 kts | 240° |
| 2026-04-10 12:02 | 48.06918 | 14.46794 | 36127 ft | 416 kts | 240° |
| 2026-04-10 12:03 | 48.03217 | 14.40143 | 36121 ft | 416 kts | 240° |
| 2026-04-10 12:03 | 47.99508 | 14.33496 | 36131 ft | 417 kts | 240° |
| 2026-04-10 12:04 | 47.95785 | 14.26838 | 36120 ft | 419 kts | 240° |
| 2026-04-10 12:04 | 47.92045 | 14.20165 | 36106 ft | 420 kts | 240° |
| 2026-04-10 12:05 | 47.88288 | 14.13483 | 36109 ft | 420 kts | 240° |
| 2026-04-10 12:05 | 47.84549 | 14.06849 | 36122 ft | 420 kts | 240° |
| 2026-04-10 12:06 | 47.80785 | 14.00184 | 36097 ft | 421 kts | 240° |
| 2026-04-10 12:06 | 47.77000 | 13.93497 | 36093 ft | 423 kts | 240° |
| 2026-04-10 12:07 | 47.71298 | 13.83460 | 36070 ft | 424 kts | 240° |
| 2026-04-10 12:08 | 47.67492 | 13.76783 | 36086 ft | 424 kts | 240° |
| 2026-04-10 12:08 | 47.63683 | 13.70116 | 36071 ft | 422 kts | 240° |
| 2026-04-10 12:09 | 47.59885 | 13.63485 | 36068 ft | 422 kts | 240° |
| 2026-04-10 12:09 | 47.56090 | 13.56874 | 36080 ft | 422 kts | 240° |
| 2026-04-10 12:10 | 47.52298 | 13.50281 | 36055 ft | 423 kts | 240° |
| 2026-04-10 12:10 | 47.48479 | 13.43659 | 36061 ft | 423 kts | 240° |
| 2026-04-10 12:11 | 47.44652 | 13.37042 | 36054 ft | 423 kts | 240° |
| 2026-04-10 12:11 | 47.40845 | 13.30477 | 36092 ft | 416 kts | 240° |
| 2026-04-10 12:12 | 47.37078 | 13.24002 | 36094 ft | 416 kts | 240° |
| 2026-04-10 12:12 | 47.33296 | 13.17498 | 36051 ft | 420 kts | 240° |
| 2026-04-10 12:13 | 47.29483 | 13.10962 | 36076 ft | 421 kts | 240° |
| 2026-04-10 12:13 | 47.25645 | 13.04406 | 36038 ft | 422 kts | 239° |
| 2026-04-10 12:14 | 47.21798 | 12.97852 | 36042 ft | 424 kts | 240° |
| 2026-04-10 12:14 | 47.17950 | 12.91311 | 36038 ft | 422 kts | 239° |
| 2026-04-10 12:15 | 47.14119 | 12.84814 | 36043 ft | 421 kts | 239° |
| 2026-04-10 12:15 | 47.10269 | 12.78295 | 36052 ft | 424 kts | 239° |
| 2026-04-10 12:16 | 47.06405 | 12.71769 | 36035 ft | 424 kts | 239° |
| 2026-04-10 12:16 | 47.02528 | 12.65242 | 36036 ft | 425 kts | 239° |
| 2026-04-10 12:17 | 46.98643 | 12.58713 | 36022 ft | 425 kts | 239° |
| 2026-04-10 12:17 | 46.94746 | 12.52184 | 36005 ft | 425 kts | 239° |
| 2026-04-10 12:18 | 46.90862 | 12.45691 | 36043 ft | 424 kts | 239° |
| 2026-04-10 12:18 | 46.86972 | 12.39198 | 36024 ft | 425 kts | 238° |
| 2026-04-10 12:19 | 46.83076 | 12.32712 | 36035 ft | 425 kts | 238° |
| 2026-04-10 12:19 | 46.79574 | 12.25942 | 36043 ft | 408 kts | 252° |
| 2026-04-10 12:20 | 46.77238 | 12.18501 | 36044 ft | 403 kts | 255° |
| 2026-04-10 12:20 | 46.74969 | 12.11038 | 36035 ft | 403 kts | 255° |
| 2026-04-10 12:21 | 46.72671 | 12.03583 | 36036 ft | 402 kts | 255° |
| 2026-04-10 12:21 | 46.70353 | 11.96144 | 36003 ft | 403 kts | 255° |
| 2026-04-10 12:22 | 46.68032 | 11.88741 | 36008 ft | 402 kts | 255° |
| 2026-04-10 12:22 | 46.65722 | 11.81397 | 35990 ft | 402 kts | 254° |
| 2026-04-10 12:23 | 46.63377 | 11.73956 | 35971 ft | 400 kts | 255° |
| 2026-04-10 12:23 | 46.61065 | 11.66638 | 35978 ft | 401 kts | 254° |
| 2026-04-10 12:24 | 46.58727 | 11.59266 | 35970 ft | 402 kts | 254° |
| 2026-04-10 12:24 | 46.56381 | 11.51896 | 35980 ft | 400 kts | 254° |
| 2026-04-10 12:25 | 46.54036 | 11.44544 | 35957 ft | 400 kts | 253° |
| 2026-04-10 12:25 | 46.52090 | 11.38457 | 35963 ft | 400 kts | 253° |
| 2026-04-10 12:26 | 46.49750 | 11.31158 | 35959 ft | 396 kts | 253° |
| 2026-04-10 12:26 | 46.47433 | 11.23958 | 35952 ft | 392 kts | 253° |
| 2026-04-10 12:26 | 46.46279 | 11.20368 | 35727 ft | 394 kts | 253° |
| 2026-04-10 12:27 | 46.45127 | 11.16793 | 35472 ft | 388 kts | 253° |
| 2026-04-10 12:27 | 46.43987 | 11.13266 | 35183 ft | 384 kts | 253° |
| 2026-04-10 12:27 | 46.42855 | 11.09774 | 34821 ft | 381 kts | 253° |
| 2026-04-10 12:27 | 46.41637 | 11.06351 | 34437 ft | 384 kts | 247° |
| 2026-04-10 12:28 | 46.40058 | 11.03177 | 34007 ft | 391 kts | 240° |
| 2026-04-10 12:28 | 46.38340 | 11.00140 | 33601 ft | 389 kts | 239° |
| 2026-04-10 12:28 | 46.36615 | 10.97129 | 33204 ft | 388 kts | 239° |
| 2026-04-10 12:28 | 46.34910 | 10.94119 | 32810 ft | 386 kts | 239° |
| 2026-04-10 12:29 | 46.33227 | 10.91117 | 32455 ft | 383 kts | 240° |
| 2026-04-10 12:29 | 46.31554 | 10.88120 | 32076 ft | 381 kts | 240° |
| 2026-04-10 12:29 | 46.30062 | 10.85022 | 31749 ft | 368 kts | 250° |
| 2026-04-10 12:29 | 46.28905 | 10.81779 | 31454 ft | 361 kts | 252° |
| 2026-04-10 12:30 | 46.27792 | 10.78531 | 31093 ft | 359 kts | 252° |
| 2026-04-10 12:30 | 46.26690 | 10.75300 | 30747 ft | 357 kts | 252° |
| 2026-04-10 12:30 | 46.25588 | 10.72092 | 30412 ft | 356 kts | 252° |
| 2026-04-10 12:30 | 46.24486 | 10.68904 | 30023 ft | 353 kts | 252° |
| 2026-04-10 12:31 | 46.23402 | 10.65792 | 29684 ft | 350 kts | 252° |
| 2026-04-10 12:31 | 46.22308 | 10.62662 | 29329 ft | 347 kts | 252° |
| 2026-04-10 12:31 | 46.21209 | 10.59528 | 28915 ft | 343 kts | 252° |
| 2026-04-10 12:31 | 46.20153 | 10.56523 | 28573 ft | 338 kts | 252° |
| 2026-04-10 12:32 | 46.19103 | 10.53532 | 28245 ft | 333 kts | 252° |
| 2026-04-10 12:32 | 46.18053 | 10.50542 | 27885 ft | 332 kts | 252° |
| 2026-04-10 12:32 | 46.17012 | 10.47579 | 27542 ft | 331 kts | 252° |
| 2026-04-10 12:32 | 46.15971 | 10.44628 | 27181 ft | 329 kts | 252° |
| 2026-04-10 12:33 | 46.14930 | 10.41712 | 26849 ft | 326 kts | 251° |
| 2026-04-10 12:33 | 46.13895 | 10.38836 | 26605 ft | 321 kts | 252° |
| 2026-04-10 12:33 | 46.12886 | 10.35963 | 26252 ft | 322 kts | 252° |
| 2026-04-10 12:33 | 46.11878 | 10.33084 | 25914 ft | 323 kts | 252° |
| 2026-04-10 12:34 | 46.10857 | 10.30170 | 25566 ft | 330 kts | 252° |
| 2026-04-10 12:34 | 46.09805 | 10.27176 | 25189 ft | 336 kts | 252° |
| 2026-04-10 12:34 | 46.08752 | 10.24216 | 24845 ft | 326 kts | 252° |
| 2026-04-10 12:34 | 46.07740 | 10.21384 | 24510 ft | 318 kts | 253° |
| 2026-04-10 12:35 | 46.06727 | 10.18535 | 24204 ft | 313 kts | 253° |
| 2026-04-10 12:35 | 46.05751 | 10.15789 | 23916 ft | 310 kts | 252° |
| 2026-04-10 12:35 | 46.04765 | 10.13019 | 23504 ft | 311 kts | 252° |
| 2026-04-10 12:35 | 46.03789 | 10.10247 | 23111 ft | 311 kts | 253° |
| 2026-04-10 12:36 | 46.02841 | 10.07426 | 22634 ft | 312 kts | 252° |
| 2026-04-10 12:36 | 46.01910 | 10.04659 | 22460 ft | 307 kts | 253° |
| 2026-04-10 12:36 | 46.00971 | 10.01832 | 22040 ft | 317 kts | 252° |
| 2026-04-10 12:36 | 46.00015 | 9.98954 | 21668 ft | 322 kts | 252° |
| 2026-04-10 12:37 | 45.99045 | 9.96058 | 21401 ft | 320 kts | 252° |
| 2026-04-10 12:37 | 45.98077 | 9.93178 | 21023 ft | 320 kts | 252° |
| 2026-04-10 12:37 | 45.97109 | 9.90307 | 20681 ft | 317 kts | 251° |
| 2026-04-10 12:37 | 45.96149 | 9.87460 | 20371 ft | 316 kts | 251° |
| 2026-04-10 12:38 | 45.95195 | 9.84633 | 20045 ft | 315 kts | 250° |
| 2026-04-10 12:38 | 45.94232 | 9.81789 | 19696 ft | 314 kts | 250° |
| 2026-04-10 12:38 | 45.93281 | 9.78978 | 19387 ft | 312 kts | 251° |
| 2026-04-10 12:38 | 45.92332 | 9.76174 | 19078 ft | 313 kts | 250° |
| 2026-04-10 12:39 | 45.91374 | 9.73348 | 18715 ft | 315 kts | 250° |
| 2026-04-10 12:39 | 45.90418 | 9.70530 | 18386 ft | 313 kts | 249° |
| 2026-04-10 12:39 | 45.89465 | 9.67730 | 18022 ft | 312 kts | 249° |
| 2026-04-10 12:39 | 45.88515 | 9.64936 | 17666 ft | 310 kts | 249° |
| 2026-04-10 12:40 | 45.87581 | 9.62194 | 17328 ft | 309 kts | 249° |
| 2026-04-10 12:40 | 45.86645 | 9.59440 | 17035 ft | 305 kts | 249° |
| 2026-04-10 12:40 | 45.85712 | 9.56711 | 16681 ft | 304 kts | 249° |
| 2026-04-10 12:40 | 45.84782 | 9.53995 | 16388 ft | 301 kts | 249° |
| 2026-04-10 12:41 | 45.83864 | 9.51333 | 16124 ft | 297 kts | 249° |
| 2026-04-10 12:41 | 45.82962 | 9.48711 | 15809 ft | 294 kts | 249° |
| 2026-04-10 12:41 | 45.82054 | 9.46073 | 15509 ft | 292 kts | 249° |
| 2026-04-10 12:41 | 45.81153 | 9.43454 | 15220 ft | 293 kts | 249° |
| 2026-04-10 12:42 | 45.80247 | 9.40830 | 14882 ft | 294 kts | 248° |
| 2026-04-10 12:42 | 45.79344 | 9.38208 | 14578 ft | 294 kts | 248° |
| 2026-04-10 12:42 | 45.78448 | 9.35613 | 14304 ft | 294 kts | 248° |
| 2026-04-10 12:42 | 45.77539 | 9.32986 | 13982 ft | 294 kts | 248° |
| 2026-04-10 12:43 | 45.76630 | 9.30364 | 13653 ft | 293 kts | 248° |
| 2026-04-10 12:43 | 45.75726 | 9.27753 | 13318 ft | 292 kts | 248° |
| 2026-04-10 12:43 | 45.74827 | 9.25157 | 13006 ft | 290 kts | 248° |
| 2026-04-10 12:43 | 45.73931 | 9.22573 | 12666 ft | 288 kts | 248° |
| 2026-04-10 12:44 | 45.73049 | 9.20025 | 12378 ft | 285 kts | 248° |
| 2026-04-10 12:44 | 45.72169 | 9.17488 | 12040 ft | 283 kts | 248° |
| 2026-04-10 12:44 | 45.71294 | 9.14969 | 11732 ft | 282 kts | 248° |
| 2026-04-10 12:44 | 45.70418 | 9.12454 | 11440 ft | 281 kts | 247° |
| 2026-04-10 12:45 | 45.69546 | 9.09944 | 11120 ft | 281 kts | 247° |
| 2026-04-10 12:45 | 45.68675 | 9.07450 | 10824 ft | 279 kts | 246° |
| 2026-04-10 12:45 | 45.67814 | 9.04979 | 10536 ft | 278 kts | 246° |
| 2026-04-10 12:45 | 45.66944 | 9.02486 | 10251 ft | 278 kts | 246° |
| 2026-04-10 12:46 | 45.66099 | 9.00069 | 10105 ft | 273 kts | 246° |
| 2026-04-10 12:46 | 45.65251 | 8.97646 | 9825 ft | 272 kts | 245° |
| 2026-04-10 12:46 | 45.64404 | 8.95236 | 9529 ft | 272 kts | 245° |
| 2026-04-10 12:46 | 45.63554 | 8.92815 | 9233 ft | 271 kts | 245° |
| 2026-04-10 12:47 | 45.62639 | 8.90504 | 9131 ft | 265 kts | 232° |
| 2026-04-10 12:47 | 45.59689 | 8.88410 | 8767 ft | 264 kts | 184° |
| 2026-04-10 12:47 | 45.57839 | 8.88651 | 8529 ft | 264 kts | 171° |
| 2026-04-10 12:48 | 45.56056 | 8.89158 | 8258 ft | 265 kts | 170° |
| 2026-04-10 12:48 | 45.54220 | 8.89701 | 7996 ft | 266 kts | 170° |
| 2026-04-10 12:48 | 45.52394 | 8.90219 | 7709 ft | 269 kts | 170° |
| 2026-04-10 12:48 | 45.50552 | 8.90733 | 7432 ft | 271 kts | 170° |
| 2026-04-10 12:49 | 45.48722 | 8.91235 | 7146 ft | 272 kts | 170° |
| 2026-04-10 12:49 | 45.46863 | 8.91745 | 6885 ft | 273 kts | 170° |
| 2026-04-10 12:49 | 45.44989 | 8.92263 | 6613 ft | 276 kts | 170° |
| 2026-04-10 12:49 | 45.43095 | 8.92775 | 6351 ft | 278 kts | 170° |
| 2026-04-10 12:50 | 45.41183 | 8.93288 | 6124 ft | 279 kts | 170° |
| 2026-04-10 12:50 | 45.39295 | 8.93793 | 6038 ft | 273 kts | 170° |
| 2026-04-10 12:50 | 45.37446 | 8.94308 | 5986 ft | 267 kts | 170° |
| 2026-04-10 12:50 | 45.35648 | 8.94785 | 5967 ft | 258 kts | 172° |
| 2026-04-10 12:51 | 45.33914 | 8.95234 | 5967 ft | 247 kts | 171° |
| 2026-04-10 12:51 | 45.32210 | 8.95465 | 5761 ft | 249 kts | 194° |
| 2026-04-10 12:51 | 45.30767 | 8.94306 | 5684 ft | 236 kts | 231° |
| 2026-04-10 12:51 | 45.30034 | 8.92279 | 5451 ft | 233 kts | 257° |
| 2026-04-10 12:52 | 45.30008 | 8.89998 | 5240 ft | 232 kts | 282° |
| 2026-04-10 12:52 | 45.30648 | 8.87897 | 5057 ft | 237 kts | 306° |
| 2026-04-10 12:52 | 45.31800 | 8.86231 | 4908 ft | 235 kts | 317° |
| 2026-04-10 12:52 | 45.33055 | 8.84716 | 4742 ft | 238 kts | 319° |
| 2026-04-10 12:53 | 45.34321 | 8.83199 | 4504 ft | 241 kts | 317° |
| 2026-04-10 12:53 | 45.35587 | 8.81613 | 4331 ft | 240 kts | 318° |
| 2026-04-10 12:53 | 45.36928 | 8.80224 | 4117 ft | 238 kts | 336° |
| 2026-04-10 12:53 | 45.38527 | 8.79781 | 4054 ft | 236 kts | 356° |